sensor_id;sensor_type;location;lat;lon;timestamp;pressure;altitude;pressure_sealevel;temperature;humidity
6194;BME280;3130;41.564;23.280;2022-09-09T00:02:27;99052.06;;;19.55;89.44
6194;BME280;3130;41.564;23.280;2022-09-09T00:04:59;99075.38;;;19.57;89.88
6194;BME280;3130;41.564;23.280;2022-09-09T00:07:37;99060.09;;;19.44;90.12
6194;BME280;3130;41.564;23.280;2022-09-09T00:10:16;99067.03;;;19.44;90.78
6194;BME280;3130;41.564;23.280;2022-09-09T00:12:53;99039.34;;;19.26;91.21
6194;BME280;3130;41.564;23.280;2022-09-09T00:15:25;99016.94;;;19.15;91.28
6194;BME280;3130;41.564;23.280;2022-09-09T00:17:57;99035.78;;;19.27;91.49
6194;BME280;3130;41.564;23.280;2022-09-09T00:20:32;99061.16;;;19.42;91.83
6194;BME280;3130;41.564;23.280;2022-09-09T00:23:12;99067.25;;;19.33;92.02
6194;BME280;3130;41.564;23.280;2022-09-09T00:25:44;99068.63;;;19.27;92.24
6194;BME280;3130;41.564;23.280;2022-09-09T00:28:19;99067.28;;;19.24;92.26
6194;BME280;3130;41.564;23.280;2022-09-09T00:30:46;99058.25;;;19.18;91.94
6194;BME280;3130;41.564;23.280;2022-09-09T00:33:16;99035.84;;;18.98;92.43
6194;BME280;3130;41.564;23.280;2022-09-09T00:35:48;99049.09;;;19.14;92.48
6194;BME280;3130;41.564;23.280;2022-09-09T00:38:19;99049.34;;;19.11;92.10
6194;BME280;3130;41.564;23.280;2022-09-09T00:40:52;99030.38;;;19.01;91.29
6194;BME280;3130;41.564;23.280;2022-09-09T00:43:26;99056.63;;;19.17;91.13
6194;BME280;3130;41.564;23.280;2022-09-09T00:46:26;99054.31;;;19.14;90.81
6194;BME280;3130;41.564;23.280;2022-09-09T00:49:04;99048.66;;;19.19;90.84
6194;BME280;3130;41.564;23.280;2022-09-09T00:51:43;99017.81;;;18.97;90.72
6194;BME280;3130;41.564;23.280;2022-09-09T00:54:38;99045.66;;;19.23;90.63
6194;BME280;3130;41.564;23.280;2022-09-09T00:57:21;99045.47;;;19.34;90.42
6194;BME280;3130;41.564;23.280;2022-09-09T00:59:51;99050.63;;;19.43;89.50
6194;BME280;3130;41.564;23.280;2022-09-09T01:02:27;99046.78;;;19.47;88.26
6194;BME280;3130;41.564;23.280;2022-09-09T01:05:00;99031.94;;;19.30;88.40
6194;BME280;3130;41.564;23.280;2022-09-09T01:07:28;99022.66;;;19.19;88.68
6194;BME280;3130;41.564;23.280;2022-09-09T01:09:58;99040.47;;;19.23;88.25
6194;BME280;3130;41.564;23.280;2022-09-09T01:12:35;99050.31;;;19.20;88.30
6194;BME280;3130;41.564;23.280;2022-09-09T01:15:09;99053.59;;;19.22;87.79
6194;BME280;3130;41.564;23.280;2022-09-09T01:17:50;98978.88;;;18.78;87.59
6194;BME280;3130;41.564;23.280;2022-09-09T01:20:23;99042.66;;;19.18;87.88
6194;BME280;3130;41.564;23.280;2022-09-09T01:23:07;99052.47;;;19.24;88.27
6194;BME280;3130;41.564;23.280;2022-09-09T01:28:51;99050.97;;;19.22;88.12
6194;BME280;3130;41.564;23.280;2022-09-09T01:31:21;99030.09;;;19.04;88.05
6194;BME280;3130;41.564;23.280;2022-09-09T01:33:49;99058.94;;;19.11;88.83
6194;BME280;3130;41.564;23.280;2022-09-09T01:36:21;99053.50;;;19.04;88.80
6194;BME280;3130;41.564;23.280;2022-09-09T01:38:51;99037.91;;;18.95;88.79
6194;BME280;3130;41.564;23.280;2022-09-09T01:41:19;99019.59;;;18.87;88.58
6194;BME280;3130;41.564;23.280;2022-09-09T01:43:47;99037.31;;;19.10;88.40
6194;BME280;3130;41.564;23.280;2022-09-09T01:46:15;99047.69;;;19.10;88.11
6194;BME280;3130;41.564;23.280;2022-09-09T01:48:43;99048.41;;;19.12;88.01
6194;BME280;3130;41.564;23.280;2022-09-09T01:51:10;99032.28;;;18.99;87.96
6194;BME280;3130;41.564;23.280;2022-09-09T01:53:38;99047.97;;;19.07;88.33
6194;BME280;3130;41.564;23.280;2022-09-09T01:56:14;99010.69;;;18.89;88.14
6194;BME280;3130;41.564;23.280;2022-09-09T01:59:01;99017.50;;;19.00;87.78
6194;BME280;3130;41.564;23.280;2022-09-09T02:01:41;99031.31;;;19.10;87.97
6194;BME280;3130;41.564;23.280;2022-09-09T02:04:23;98982.56;;;18.75;87.77
6194;BME280;3130;41.564;23.280;2022-09-09T02:06:55;99034.72;;;19.01;88.62
6194;BME280;3130;41.564;23.280;2022-09-09T02:09:24;99042.41;;;19.02;88.84
6194;BME280;3130;41.564;23.280;2022-09-09T02:11:55;99026.25;;;18.99;88.60
6194;BME280;3130;41.564;23.280;2022-09-09T02:14:29;99030.63;;;19.08;88.31
6194;BME280;3130;41.564;23.280;2022-09-09T02:17:01;99031.41;;;19.08;88.24
6194;BME280;3130;41.564;23.280;2022-09-09T02:19:32;99033.22;;;19.08;88.05
6194;BME280;3130;41.564;23.280;2022-09-09T02:22:02;99027.34;;;19.06;88.09
6194;BME280;3130;41.564;23.280;2022-09-09T02:24:32;99022.28;;;19.04;88.49
6194;BME280;3130;41.564;23.280;2022-09-09T02:27:02;99027.09;;;18.99;88.71
6194;BME280;3130;41.564;23.280;2022-09-09T02:29:34;99030.66;;;18.98;89.46
6194;BME280;3130;41.564;23.280;2022-09-09T02:32:06;99025.59;;;18.97;89.70
6194;BME280;3130;41.564;23.280;2022-09-09T02:34:36;99028.31;;;18.95;89.52
6194;BME280;3130;41.564;23.280;2022-09-09T02:37:06;99035.31;;;18.95;89.71
6194;BME280;3130;41.564;23.280;2022-09-09T02:39:34;99029.56;;;18.91;89.93
6194;BME280;3130;41.564;23.280;2022-09-09T02:42:03;99013.59;;;18.86;89.82
6194;BME280;3130;41.564;23.280;2022-09-09T02:44:30;99033.53;;;18.95;89.96
6194;BME280;3130;41.564;23.280;2022-09-09T02:47:13;99036.53;;;19.00;90.01
6194;BME280;3130;41.564;23.280;2022-09-09T02:49:51;98993.19;;;18.82;89.85
6194;BME280;3130;41.564;23.280;2022-09-09T02:52:27;99020.94;;;19.00;89.99
6194;BME280;3130;41.564;23.280;2022-09-09T02:55:02;99019.28;;;18.99;90.04
6194;BME280;3130;41.564;23.280;2022-09-09T02:57:31;98975.22;;;18.61;90.27
6194;BME280;3130;41.564;23.280;2022-09-09T03:00:00;99020.44;;;18.87;90.57
6194;BME280;3130;41.564;23.280;2022-09-09T03:02:29;99023.69;;;18.89;90.52
6194;BME280;3130;41.564;23.280;2022-09-09T03:04:56;99027.53;;;18.85;90.50
6194;BME280;3130;41.564;23.280;2022-09-09T03:07:24;98946.97;;;18.30;89.79
6194;BME280;3130;41.564;23.280;2022-09-09T03:09:51;99034.22;;;18.88;89.74
6194;BME280;3130;41.564;23.280;2022-09-09T03:12:20;99029.97;;;18.96;89.34
6194;BME280;3130;41.564;23.280;2022-09-09T03:14:47;99028.31;;;18.95;89.12
6194;BME280;3130;41.564;23.280;2022-09-09T03:17:14;99030.25;;;18.93;89.24
6194;BME280;3130;41.564;23.280;2022-09-09T03:19:43;99021.91;;;18.90;89.28
6194;BME280;3130;41.564;23.280;2022-09-09T03:22:11;99018.78;;;18.86;90.01
6194;BME280;3130;41.564;23.280;2022-09-09T03:24:39;99025.31;;;18.90;90.37
6194;BME280;3130;41.564;23.280;2022-09-09T03:27:06;99027.38;;;18.96;90.25
6194;BME280;3130;41.564;23.280;2022-09-09T03:29:33;99021.88;;;18.99;90.09
6194;BME280;3130;41.564;23.280;2022-09-09T03:32:00;99018.09;;;18.94;90.14
6194;BME280;3130;41.564;23.280;2022-09-09T03:34:27;99015.88;;;18.89;89.93
6194;BME280;3130;41.564;23.280;2022-09-09T03:36:55;99016.47;;;18.83;90.32
6194;BME280;3130;41.564;23.280;2022-09-09T03:39:23;99006.53;;;18.69;90.43
6194;BME280;3130;41.564;23.280;2022-09-09T03:41:50;99026.72;;;18.75;90.73
6194;BME280;3130;41.564;23.280;2022-09-09T03:44:16;99034.13;;;18.70;90.95
6194;BME280;3130;41.564;23.280;2022-09-09T03:46:43;99017.31;;;18.65;91.41
6194;BME280;3130;41.564;23.280;2022-09-09T03:49:11;99028.38;;;18.76;91.25
6194;BME280;3130;41.564;23.280;2022-09-09T03:51:38;99029.47;;;18.74;90.98
6194;BME280;3130;41.564;23.280;2022-09-09T03:54:07;99021.28;;;18.59;91.97
6194;BME280;3130;41.564;23.280;2022-09-09T03:56:36;99027.31;;;18.60;92.33
6194;BME280;3130;41.564;23.280;2022-09-09T03:59:03;99020.22;;;18.52;92.42
6194;BME280;3130;41.564;23.280;2022-09-09T04:01:31;99028.13;;;18.60;92.20
6194;BME280;3130;41.564;23.280;2022-09-09T04:03:58;99038.50;;;18.60;92.01
6194;BME280;3130;41.564;23.280;2022-09-09T04:06:27;99053.16;;;18.52;92.48
6194;BME280;3130;41.564;23.280;2022-09-09T04:08:55;99051.50;;;18.51;92.91
6194;BME280;3130;41.564;23.280;2022-09-09T04:11:24;99055.63;;;18.44;93.60
6194;BME280;3130;41.564;23.280;2022-09-09T04:13:51;99051.50;;;18.41;94.08
6194;BME280;3130;41.564;23.280;2022-09-09T04:16:18;99046.03;;;18.44;93.86
6194;BME280;3130;41.564;23.280;2022-09-09T04:18:46;99022.81;;;18.33;94.33
6194;BME280;3130;41.564;23.280;2022-09-09T04:21:13;99025.69;;;18.40;94.48
6194;BME280;3130;41.564;23.280;2022-09-09T04:23:41;99038.53;;;18.51;94.58
6194;BME280;3130;41.564;23.280;2022-09-09T04:26:08;98996.94;;;18.22;94.57
6194;BME280;3130;41.564;23.280;2022-09-09T04:28:37;99038.41;;;18.43;94.77
6194;BME280;3130;41.564;23.280;2022-09-09T04:31:05;99029.94;;;18.31;94.72
6194;BME280;3130;41.564;23.280;2022-09-09T04:33:33;99039.38;;;18.32;95.03
6194;BME280;3130;41.564;23.280;2022-09-09T04:36:00;99048.66;;;18.44;94.54
6194;BME280;3130;41.564;23.280;2022-09-09T04:38:27;99046.03;;;18.44;94.25
6194;BME280;3130;41.564;23.280;2022-09-09T04:40:54;99052.72;;;18.47;94.21
6194;BME280;3130;41.564;23.280;2022-09-09T04:43:22;99048.47;;;18.55;94.35
6194;BME280;3130;41.564;23.280;2022-09-09T04:45:53;99058.50;;;18.60;94.43
6194;BME280;3130;41.564;23.280;2022-09-09T04:48:20;99052.88;;;18.64;94.15
6194;BME280;3130;41.564;23.280;2022-09-09T04:50:58;99059.81;;;18.64;94.49
6194;BME280;3130;41.564;23.280;2022-09-09T04:53:25;98995.75;;;18.26;95.05
6194;BME280;3130;41.564;23.280;2022-09-09T04:55:52;99065.72;;;18.66;94.99
6194;BME280;3130;41.564;23.280;2022-09-09T04:58:20;99041.63;;;18.64;94.94
6194;BME280;3130;41.564;23.280;2022-09-09T05:00:49;99043.53;;;18.71;95.02
6194;BME280;3130;41.564;23.280;2022-09-09T05:03:18;99037.25;;;18.83;94.72
6194;BME280;3130;41.564;23.280;2022-09-09T05:05:45;99041.50;;;18.84;94.71
6194;BME280;3130;41.564;23.280;2022-09-09T05:08:12;99052.69;;;18.94;94.53
6194;BME280;3130;41.564;23.280;2022-09-09T05:10:40;99056.63;;;18.98;93.99
6194;BME280;3130;41.564;23.280;2022-09-09T05:13:07;99060.88;;;18.99;94.42
6194;BME280;3130;41.564;23.280;2022-09-09T05:15:34;99010.06;;;18.78;94.05
6194;BME280;3130;41.564;23.280;2022-09-09T05:18:02;99046.06;;;19.09;94.07
6194;BME280;3130;41.564;23.280;2022-09-09T05:20:30;99047.47;;;19.13;93.72
6194;BME280;3130;41.564;23.280;2022-09-09T05:22:57;99038.25;;;19.19;93.72
6194;BME280;3130;41.564;23.280;2022-09-09T05:25:24;99043.41;;;19.37;93.11
6194;BME280;3130;41.564;23.280;2022-09-09T05:27:52;99022.59;;;19.37;92.99
6194;BME280;3130;41.564;23.280;2022-09-09T05:30:20;99039.84;;;19.65;92.05
6194;BME280;3130;41.564;23.280;2022-09-09T05:32:48;99043.88;;;19.77;91.92
6194;BME280;3130;41.564;23.280;2022-09-09T05:35:15;99039.13;;;19.90;91.36
6194;BME280;3130;41.564;23.280;2022-09-09T05:37:45;99034.59;;;20.02;91.03
6194;BME280;3130;41.564;23.280;2022-09-09T05:40:13;99027.38;;;20.13;90.33
6194;BME280;3130;41.564;23.280;2022-09-09T05:42:40;99031.53;;;20.24;90.42
6194;BME280;3130;41.564;23.280;2022-09-09T05:45:08;99037.19;;;20.36;89.62
6194;BME280;3130;41.564;23.280;2022-09-09T05:47:36;99036.81;;;20.49;87.95
6194;BME280;3130;41.564;23.280;2022-09-09T05:50:04;99020.97;;;20.42;86.63
6194;BME280;3130;41.564;23.280;2022-09-09T05:52:31;99040.00;;;20.60;86.83
6194;BME280;3130;41.564;23.280;2022-09-09T05:55:00;99038.50;;;20.58;86.54
6194;BME280;3130;41.564;23.280;2022-09-09T05:57:29;99038.16;;;20.53;86.68
6194;BME280;3130;41.564;23.280;2022-09-09T05:59:56;99039.25;;;20.50;87.63
6194;BME280;3130;41.564;23.280;2022-09-09T06:02:23;99040.56;;;20.46;87.95
6194;BME280;3130;41.564;23.280;2022-09-09T06:04:50;99042.53;;;20.52;88.37
6194;BME280;3130;41.564;23.280;2022-09-09T06:07:17;99037.69;;;20.57;88.05
6194;BME280;3130;41.564;23.280;2022-09-09T06:09:45;99040.34;;;20.65;87.78
6194;BME280;3130;41.564;23.280;2022-09-09T06:12:14;99030.38;;;20.61;86.77
6194;BME280;3130;41.564;23.280;2022-09-09T06:14:41;99044.66;;;20.74;86.62
6194;BME280;3130;41.564;23.280;2022-09-09T06:17:08;99046.38;;;20.83;85.75
6194;BME280;3130;41.564;23.280;2022-09-09T06:19:35;99022.41;;;20.80;85.15
6194;BME280;3130;41.564;23.280;2022-09-09T06:22:02;99016.44;;;20.87;84.76
6194;BME280;3130;41.564;23.280;2022-09-09T06:24:30;99021.41;;;20.98;83.92
6194;BME280;3130;41.564;23.280;2022-09-09T06:26:58;99058.00;;;21.39;83.45
6194;BME280;3130;41.564;23.280;2022-09-09T06:29:27;99060.22;;;21.60;82.70
6194;BME280;3130;41.564;23.280;2022-09-09T06:31:54;99059.97;;;21.79;82.14
6194;BME280;3130;41.564;23.280;2022-09-09T06:34:21;99060.84;;;22.03;81.43
6194;BME280;3130;41.564;23.280;2022-09-09T06:36:48;99067.75;;;22.20;80.64
6194;BME280;3130;41.564;23.280;2022-09-09T06:39:16;99057.88;;;22.40;79.68
6194;BME280;3130;41.564;23.280;2022-09-09T06:41:43;99042.81;;;22.49;78.54
6194;BME280;3130;41.564;23.280;2022-09-09T06:44:10;99056.06;;;22.72;77.82
6194;BME280;3130;41.564;23.280;2022-09-09T06:46:39;99034.31;;;22.79;77.63
6194;BME280;3130;41.564;23.280;2022-09-09T06:49:08;99038.06;;;23.09;77.53
6194;BME280;3130;41.564;23.280;2022-09-09T06:51:36;98982.78;;;22.96;76.23
6194;BME280;3130;41.564;23.280;2022-09-09T06:54:08;99046.44;;;23.50;75.09
6194;BME280;3130;41.564;23.280;2022-09-09T06:56:36;99053.06;;;23.69;74.43
6194;BME280;3130;41.564;23.280;2022-09-09T06:59:04;99045.00;;;23.86;73.33
6194;BME280;3130;41.564;23.280;2022-09-09T07:01:35;99054.31;;;24.19;72.04
6194;BME280;3130;41.564;23.280;2022-09-09T07:04:04;99031.06;;;24.39;70.34
6194;BME280;3130;41.564;23.280;2022-09-09T07:06:34;99050.00;;;24.71;69.29
6194;BME280;3130;41.564;23.280;2022-09-09T07:09:03;99047.97;;;24.95;68.04
6194;BME280;3130;41.564;23.280;2022-09-09T07:11:32;99047.66;;;25.13;67.21
6194;BME280;3130;41.564;23.280;2022-09-09T07:14:00;99053.84;;;25.34;67.14
6194;BME280;3130;41.564;23.280;2022-09-09T07:16:28;99054.81;;;25.62;65.54
6194;BME280;3130;41.564;23.280;2022-09-09T07:18:57;98964.09;;;25.31;64.82
6194;BME280;3130;41.564;23.280;2022-09-09T07:21:26;99037.66;;;25.95;63.39
6194;BME280;3130;41.564;23.280;2022-09-09T07:23:54;99049.22;;;26.15;62.18
6194;BME280;3130;41.564;23.280;2022-09-09T07:26:23;99062.47;;;26.42;61.22
6194;BME280;3130;41.564;23.280;2022-09-09T07:28:50;99032.22;;;26.53;60.75
6194;BME280;3130;41.564;23.280;2022-09-09T07:31:19;99058.50;;;26.94;58.22
6194;BME280;3130;41.564;23.280;2022-09-09T07:33:47;99052.28;;;27.29;57.27
6194;BME280;3130;41.564;23.280;2022-09-09T07:36:16;99044.19;;;27.71;55.63
6194;BME280;3130;41.564;23.280;2022-09-09T07:38:46;99051.25;;;28.24;52.50
6194;BME280;3130;41.564;23.280;2022-09-09T07:41:15;99042.59;;;28.56;51.27
6194;BME280;3130;41.564;23.280;2022-09-09T07:43:45;99056.25;;;29.17;48.73
6194;BME280;3130;41.564;23.280;2022-09-09T07:46:14;99058.28;;;29.91;46.92
6194;BME280;3130;41.564;23.280;2022-09-09T07:48:44;99065.31;;;30.79;44.42
6194;BME280;3130;41.564;23.280;2022-09-09T07:51:14;99053.38;;;31.90;41.61
6194;BME280;3130;41.564;23.280;2022-09-09T07:53:47;99063.00;;;33.13;38.85
6194;BME280;3130;41.564;23.280;2022-09-09T07:56:16;99055.69;;;34.06;36.22
6194;BME280;3130;41.564;23.280;2022-09-09T07:58:45;99003.25;;;34.34;35.31
6194;BME280;3130;41.564;23.280;2022-09-09T08:01:14;99066.38;;;35.48;33.54
6194;BME280;3130;41.564;23.280;2022-09-09T08:03:42;99068.78;;;35.50;33.23
6194;BME280;3130;41.564;23.280;2022-09-09T08:06:10;99069.91;;;35.32;33.68
6194;BME280;3130;41.564;23.280;2022-09-09T08:08:38;99066.66;;;35.30;33.66
6194;BME280;3130;41.564;23.280;2022-09-09T08:11:10;99047.72;;;35.32;33.71
6194;BME280;3130;41.564;23.280;2022-09-09T08:13:39;99039.25;;;35.35;33.62
6194;BME280;3130;41.564;23.280;2022-09-09T08:16:07;99056.91;;;35.19;33.57
6194;BME280;3130;41.564;23.280;2022-09-09T08:18:35;99058.38;;;34.33;34.96
6194;BME280;3130;41.564;23.280;2022-09-09T08:21:08;99050.88;;;33.17;36.92
6194;BME280;3130;41.564;23.280;2022-09-09T08:23:37;99049.00;;;32.43;38.28
6194;BME280;3130;41.564;23.280;2022-09-09T08:26:06;99043.84;;;32.18;39.88
6194;BME280;3130;41.564;23.280;2022-09-09T08:28:36;99029.88;;;31.93;40.75
6194;BME280;3130;41.564;23.280;2022-09-09T08:31:11;99055.28;;;31.11;42.17
6194;BME280;3130;41.564;23.280;2022-09-09T08:33:39;99041.25;;;30.56;44.20
6194;BME280;3130;41.564;23.280;2022-09-09T08:36:09;99038.84;;;30.48;44.90
6194;BME280;3130;41.564;23.280;2022-09-09T08:38:37;99037.47;;;30.39;44.96
6194;BME280;3130;41.564;23.280;2022-09-09T08:41:15;99048.00;;;30.14;45.85
6194;BME280;3130;41.564;23.280;2022-09-09T08:43:50;99045.25;;;29.90;46.67
6194;BME280;3130;41.564;23.280;2022-09-09T08:46:25;99042.31;;;29.61;47.74
6194;BME280;3130;41.564;23.280;2022-09-09T08:49:00;99012.94;;;29.25;48.57
6194;BME280;3130;41.564;23.280;2022-09-09T08:51:30;99022.09;;;29.03;49.24
6194;BME280;3130;41.564;23.280;2022-09-09T08:53:59;99028.03;;;28.85;49.95
6194;BME280;3130;41.564;23.280;2022-09-09T08:56:31;98959.38;;;28.47;50.23
6194;BME280;3130;41.564;23.280;2022-09-09T08:59:02;99018.28;;;28.99;49.77
6194;BME280;3130;41.564;23.280;2022-09-09T09:01:51;99019.47;;;28.96;49.79
6194;BME280;3130;41.564;23.280;2022-09-09T09:04:41;99018.25;;;29.05;49.83
6194;BME280;3130;41.564;23.280;2022-09-09T09:07:21;99025.38;;;28.79;50.51
6194;BME280;3130;41.564;23.280;2022-09-09T09:09:57;99028.19;;;28.77;50.26
6194;BME280;3130;41.564;23.280;2022-09-09T09:12:27;99023.94;;;28.70;51.30
6194;BME280;3130;41.564;23.280;2022-09-09T09:14:56;99005.47;;;28.51;50.79
6194;BME280;3130;41.564;23.280;2022-09-09T09:17:27;99012.78;;;28.62;49.59
6194;BME280;3130;41.564;23.280;2022-09-09T09:19:58;98976.84;;;28.41;48.99
6194;BME280;3130;41.564;23.280;2022-09-09T09:22:40;99013.38;;;28.76;49.33
6194;BME280;3130;41.564;23.280;2022-09-09T09:25:16;99006.50;;;28.95;48.58
6194;BME280;3130;41.564;23.280;2022-09-09T09:27:49;99004.84;;;29.00;48.68
6194;BME280;3130;41.564;23.280;2022-09-09T09:30:21;99000.38;;;29.01;48.87
6194;BME280;3130;41.564;23.280;2022-09-09T09:32:54;98978.81;;;29.04;48.96
6194;BME280;3130;41.564;23.280;2022-09-09T09:35:22;98975.56;;;29.02;48.78
6194;BME280;3130;41.564;23.280;2022-09-09T09:37:49;98907.97;;;28.56;48.69
6194;BME280;3130;41.564;23.280;2022-09-09T09:40:18;98994.31;;;28.94;48.37
6194;BME280;3130;41.564;23.280;2022-09-09T09:42:52;98996.53;;;29.03;47.56
6194;BME280;3130;41.564;23.280;2022-09-09T09:45:27;98934.41;;;28.62;47.73
6194;BME280;3130;41.564;23.280;2022-09-09T09:48:02;98995.53;;;28.98;47.93
6194;BME280;3130;41.564;23.280;2022-09-09T09:50:30;98998.16;;;28.91;47.70
6194;BME280;3130;41.564;23.280;2022-09-09T09:53:00;98975.81;;;28.81;47.56
6194;BME280;3130;41.564;23.280;2022-09-09T09:55:31;98992.25;;;29.02;47.33
6194;BME280;3130;41.564;23.280;2022-09-09T09:58:03;98983.06;;;29.11;47.72
6194;BME280;3130;41.564;23.280;2022-09-09T10:00:33;98977.63;;;28.93;47.58
6194;BME280;3130;41.564;23.280;2022-09-09T10:03:01;98922.63;;;28.52;48.25
6194;BME280;3130;41.564;23.280;2022-09-09T10:05:29;98971.94;;;28.96;48.61
6194;BME280;3130;41.564;23.280;2022-09-09T10:08:04;98961.19;;;28.98;47.24
6194;BME280;3130;41.564;23.280;2022-09-09T10:10:42;98970.84;;;29.17;46.19
6194;BME280;3130;41.564;23.280;2022-09-09T10:13:19;98957.47;;;29.18;46.27
6194;BME280;3130;41.564;23.280;2022-09-09T10:15:57;98961.25;;;29.42;45.79
6194;BME280;3130;41.564;23.280;2022-09-09T10:18:45;98945.25;;;29.17;46.52
6194;BME280;3130;41.564;23.280;2022-09-09T10:21:28;98951.94;;;29.33;46.37
6194;BME280;3130;41.564;23.280;2022-09-09T10:24:23;98947.63;;;29.38;46.12
6194;BME280;3130;41.564;23.280;2022-09-09T10:27:03;98932.09;;;29.11;46.89
6194;BME280;3130;41.564;23.280;2022-09-09T10:29:51;98942.59;;;29.24;47.12
6194;BME280;3130;41.564;23.280;2022-09-09T10:32:35;98946.28;;;29.16;46.64
6194;BME280;3130;41.564;23.280;2022-09-09T10:35:10;98894.38;;;28.72;46.85
6194;BME280;3130;41.564;23.280;2022-09-09T10:37:49;98880.41;;;28.52;47.66
6194;BME280;3130;41.564;23.280;2022-09-09T10:40:26;98947.38;;;28.89;47.64
6194;BME280;3130;41.564;23.280;2022-09-09T10:43:07;98938.84;;;28.94;48.31
6194;BME280;3130;41.564;23.280;2022-09-09T10:45:49;98945.34;;;28.85;48.73
6194;BME280;3130;41.564;23.280;2022-09-09T10:48:30;98925.22;;;28.84;48.07
6194;BME280;3130;41.564;23.280;2022-09-09T10:51:05;98860.47;;;28.62;48.30
6194;BME280;3130;41.564;23.280;2022-09-09T10:53:47;98948.75;;;29.05;47.72
6194;BME280;3130;41.564;23.280;2022-09-09T10:56:20;98933.13;;;29.03;47.79
6194;BME280;3130;41.564;23.280;2022-09-09T10:58:52;98933.75;;;28.99;47.66
6194;BME280;3130;41.564;23.280;2022-09-09T11:01:24;98917.88;;;29.05;48.57
6194;BME280;3130;41.564;23.280;2022-09-09T11:03:56;98925.16;;;29.16;47.80
6194;BME280;3130;41.564;23.280;2022-09-09T11:06:30;98907.00;;;29.26;48.23
6194;BME280;3130;41.564;23.280;2022-09-09T11:09:01;98922.09;;;29.63;47.70
6194;BME280;3130;41.564;23.280;2022-09-09T11:11:33;98905.97;;;29.40;47.28
6194;BME280;3130;41.564;23.280;2022-09-09T11:14:08;98920.47;;;29.62;46.48
6194;BME280;3130;41.564;23.280;2022-09-09T11:16:39;98928.69;;;29.54;46.11
6194;BME280;3130;41.564;23.280;2022-09-09T11:19:14;98907.16;;;29.38;47.12
6194;BME280;3130;41.564;23.280;2022-09-09T11:21:46;98914.91;;;29.39;47.58
6194;BME280;3130;41.564;23.280;2022-09-09T11:24:19;98902.88;;;29.50;47.23
6194;BME280;3130;41.564;23.280;2022-09-09T11:26:52;98896.31;;;29.59;46.41
6194;BME280;3130;41.564;23.280;2022-09-09T11:32:38;98895.78;;;29.75;45.73
6194;BME280;3130;41.564;23.280;2022-09-09T11:35:22;98895.41;;;29.71;46.11
6194;BME280;3130;41.564;23.280;2022-09-09T11:38:19;98892.91;;;29.82;46.19
6194;BME280;3130;41.564;23.280;2022-09-09T11:40:55;98881.06;;;29.85;46.39
6194;BME280;3130;41.564;23.280;2022-09-09T11:43:28;98881.06;;;29.85;46.84
6194;BME280;3130;41.564;23.280;2022-09-09T11:45:58;98890.75;;;30.04;46.48
6194;BME280;3130;41.564;23.280;2022-09-09T11:48:32;98882.25;;;30.20;46.26
6194;BME280;3130;41.564;23.280;2022-09-09T11:51:04;98864.03;;;30.12;46.13
6194;BME280;3130;41.564;23.280;2022-09-09T11:53:33;98890.59;;;30.41;45.70
6194;BME280;3130;41.564;23.280;2022-09-09T11:56:06;98855.09;;;30.31;45.56
6194;BME280;3130;41.564;23.280;2022-09-09T11:58:39;98865.69;;;30.49;45.47
6194;BME280;3130;41.564;23.280;2022-09-09T12:01:14;98881.28;;;30.63;45.88
6194;BME280;3130;41.564;23.280;2022-09-09T12:03:45;98872.44;;;30.69;45.74
6194;BME280;3130;41.564;23.280;2022-09-09T12:06:19;98865.47;;;30.75;45.09
6194;BME280;3130;41.564;23.280;2022-09-09T12:08:55;98868.25;;;30.80;44.92
6194;BME280;3130;41.564;23.280;2022-09-09T12:11:25;98867.09;;;30.76;44.70
6194;BME280;3130;41.564;23.280;2022-09-09T12:13:54;98868.63;;;30.65;44.89
6194;BME280;3130;41.564;23.280;2022-09-09T12:16:30;98840.91;;;30.43;45.23
6194;BME280;3130;41.564;23.280;2022-09-09T12:19:12;98858.09;;;30.59;45.17
6194;BME280;3130;41.564;23.280;2022-09-09T12:21:46;98842.06;;;30.54;45.57
6194;BME280;3130;41.564;23.280;2022-09-09T12:24:19;98856.91;;;30.73;45.65
6194;BME280;3130;41.564;23.280;2022-09-09T12:26:53;98852.13;;;30.81;45.10
6194;BME280;3130;41.564;23.280;2022-09-09T12:29:27;98846.31;;;30.90;44.06
6194;BME280;3130;41.564;23.280;2022-09-09T12:32:00;98821.63;;;30.79;43.83
6194;BME280;3130;41.564;23.280;2022-09-09T12:34:35;98838.16;;;30.92;44.07
6194;BME280;3130;41.564;23.280;2022-09-09T12:37:15;98843.97;;;31.00;43.93
6194;BME280;3130;41.564;23.280;2022-09-09T12:39:48;98828.72;;;30.96;43.18
6194;BME280;3130;41.564;23.280;2022-09-09T12:42:19;98829.91;;;31.00;43.58
6194;BME280;3130;41.564;23.280;2022-09-09T12:44:54;98825.56;;;31.05;43.91
6194;BME280;3130;41.564;23.280;2022-09-09T12:47:27;98827.00;;;31.01;42.64
6194;BME280;3130;41.564;23.280;2022-09-09T12:49:56;98813.16;;;30.88;43.11
6194;BME280;3130;41.564;23.280;2022-09-09T12:52:28;98800.94;;;30.87;43.87
6194;BME280;3130;41.564;23.280;2022-09-09T12:54:58;98820.25;;;30.87;42.86
6194;BME280;3130;41.564;23.280;2022-09-09T12:57:31;98818.28;;;30.83;42.97
6194;BME280;3130;41.564;23.280;2022-09-09T13:00:11;98813.44;;;30.62;43.19
6194;BME280;3130;41.564;23.280;2022-09-09T13:02:48;98809.53;;;30.47;44.11
6194;BME280;3130;41.564;23.280;2022-09-09T13:05:18;98810.09;;;30.31;44.28
6194;BME280;3130;41.564;23.280;2022-09-09T13:07:47;98803.69;;;30.20;43.91
6194;BME280;3130;41.564;23.280;2022-09-09T13:10:19;98810.81;;;30.20;44.16
6194;BME280;3130;41.564;23.280;2022-09-09T13:12:48;98767.28;;;29.91;46.09
6194;BME280;3130;41.564;23.280;2022-09-09T13:15:20;98782.91;;;29.99;44.16
6194;BME280;3130;41.564;23.280;2022-09-09T13:17:56;98780.91;;;29.95;44.55
6194;BME280;3130;41.564;23.280;2022-09-09T13:20:24;98766.16;;;29.81;45.32
6194;BME280;3130;41.564;23.280;2022-09-09T13:22:54;98796.53;;;30.03;45.97
6194;BME280;3130;41.564;23.280;2022-09-09T13:25:24;98804.81;;;30.06;45.36
6194;BME280;3130;41.564;23.280;2022-09-09T13:27:58;98808.66;;;30.10;44.81
6194;BME280;3130;41.564;23.280;2022-09-09T13:30:28;98780.31;;;29.93;44.99
6194;BME280;3130;41.564;23.280;2022-09-09T13:33:06;98800.34;;;30.07;45.77
6194;BME280;3130;41.564;23.280;2022-09-09T13:35:47;98781.75;;;29.89;46.92
6194;BME280;3130;41.564;23.280;2022-09-09T13:38:16;98797.81;;;29.94;47.60
6194;BME280;3130;41.564;23.280;2022-09-09T13:40:52;98797.81;;;29.94;48.00